createdAt,value
2022-08-26T00:01:53.123Z,6.40
2022-08-26T00:04:21.008Z,7.23
2022-08-26T00:06:47.650Z,7.60
2022-08-26T00:09:16.122Z,7.87
2022-08-26T00:11:43.469Z,7.13
2022-08-26T00:14:10.074Z,8.00
2022-08-26T00:16:36.974Z,7.63
2022-08-26T00:19:07.998Z,7.33
2022-08-26T00:21:34.862Z,7.33
2022-08-26T00:24:04.280Z,7.70
2022-08-26T00:26:30.969Z,7.70
2022-08-26T00:28:57.495Z,7.83
2022-08-26T00:31:25.068Z,8.20
2022-08-26T00:33:51.698Z,7.80
2022-08-26T00:36:20.218Z,7.67
2022-08-26T00:38:48.105Z,7.87
2022-08-26T00:41:15.128Z,7.30
2022-08-26T00:43:47.196Z,7.57
2022-08-26T00:46:18.962Z,8.00
2022-08-26T00:48:49.630Z,7.80
2022-08-26T00:51:22.082Z,7.70
2022-08-26T00:53:57.442Z,7.70
2022-08-26T00:56:34.694Z,7.50
2022-08-26T00:59:08.097Z,7.93
2022-08-26T01:01:35.627Z,8.53
2022-08-26T01:04:02.719Z,8.40
2022-08-26T01:06:29.900Z,9.07
2022-08-26T01:08:57.893Z,8.37
2022-08-26T01:11:25.365Z,8.40
2022-08-26T01:13:57.399Z,8.60
2022-08-26T01:16:25.590Z,8.07
2022-08-26T01:18:57.271Z,9.33
2022-08-26T01:21:29.465Z,8.70
2022-08-26T01:23:57.945Z,8.93
2022-08-26T01:26:29.984Z,8.60
2022-08-26T01:29:01.263Z,8.90
2022-08-26T01:31:33.549Z,9.10
2022-08-26T01:34:18.328Z,9.17
2022-08-26T01:36:51.354Z,8.47
2022-08-26T01:39:18.797Z,8.33
2022-08-26T01:41:47.465Z,8.50
2022-08-26T01:44:26.752Z,8.43
2022-08-26T01:46:56.396Z,8.60
2022-08-26T01:49:24.973Z,8.80
2022-08-26T01:51:55.093Z,8.67
2022-08-26T01:54:23.006Z,8.03
2022-08-26T01:56:51.484Z,9.17
2022-08-26T01:59:20.219Z,8.43
2022-08-26T02:01:48.739Z,8.60
2022-08-26T02:04:17.773Z,8.30
2022-08-26T02:06:45.170Z,8.77
2022-08-26T02:09:12.285Z,8.57
2022-08-26T02:11:39.361Z,8.00
2022-08-26T02:14:13.509Z,8.37
2022-08-26T02:16:44.878Z,8.33
2022-08-26T02:19:16.987Z,8.60
2022-08-26T02:21:45.979Z,7.97
2022-08-26T02:24:22.334Z,8.03
2022-08-26T02:26:51.250Z,8.20
2022-08-26T02:29:26.625Z,8.80
2022-08-26T02:31:55.770Z,8.50
2022-08-26T02:34:31.027Z,9.37
2022-08-26T02:36:59.823Z,9.03
2022-08-26T02:39:26.929Z,9.80
2022-08-26T02:41:53.523Z,9.67
2022-08-26T02:44:20.158Z,9.57
2022-08-26T02:46:47.475Z,8.90
2022-08-26T02:49:16.302Z,9.13
2022-08-26T02:51:43.732Z,8.73
2022-08-26T02:54:10.313Z,9.03
2022-08-26T02:56:37.451Z,9.10
2022-08-26T02:59:04.235Z,9.40
2022-08-26T03:01:34.992Z,8.73
2022-08-26T03:04:04.316Z,9.33
2022-08-26T03:06:31.017Z,8.93
2022-08-26T03:08:57.935Z,8.90
2022-08-26T03:11:26.726Z,8.67
2022-08-26T03:13:56.310Z,8.63
2022-08-26T03:16:23.168Z,8.37
2022-08-26T03:18:52.284Z,8.53
2022-08-26T03:21:20.021Z,8.23
2022-08-26T03:23:46.703Z,9.27
2022-08-26T03:26:15.344Z,9.40
2022-08-26T03:29:12.121Z,8.70
2022-08-26T03:31:38.727Z,9.23
2022-08-26T03:34:07.106Z,9.70
2022-08-26T03:36:33.720Z,9.43
2022-08-26T03:39:01.897Z,9.60
2022-08-26T03:41:29.069Z,10.13
2022-08-26T03:44:00.962Z,10.00
2022-08-26T03:46:28.249Z,10.07
2022-08-26T03:48:55.167Z,9.77
2022-08-26T03:51:21.701Z,9.50
2022-08-26T03:53:48.334Z,9.50
2022-08-26T03:56:15.252Z,9.60
2022-08-26T03:58:44.421Z,9.27
2022-08-26T04:01:12.758Z,10.27
2022-08-26T04:04:00.087Z,9.67
2022-08-26T04:06:33.495Z,9.73
2022-08-26T04:09:05.250Z,10.13
2022-08-26T04:11:34.144Z,10.50
2022-08-26T04:14:03.860Z,10.50
2022-08-26T04:16:31.431Z,10.17
2022-08-26T04:18:58.478Z,9.60
2022-08-26T04:21:26.810Z,10.00
2022-08-26T04:23:53.923Z,14.50
2022-08-26T04:26:23.086Z,10.77
2022-08-26T04:28:53.134Z,10.40
2022-08-26T04:31:20.458Z,9.33
2022-08-26T04:33:49.934Z,10.70
2022-08-26T04:36:17.574Z,9.80
2022-08-26T04:38:47.216Z,10.47
2022-08-26T04:41:15.311Z,10.93
2022-08-26T04:43:45.473Z,10.63
2022-08-26T04:46:16.156Z,10.23
2022-08-26T04:48:42.718Z,10.37
2022-08-26T04:51:10.109Z,10.10
2022-08-26T04:53:37.472Z,10.07
2022-08-26T04:56:05.335Z,10.33
2022-08-26T04:58:32.701Z,9.07
2022-08-26T05:00:59.608Z,9.43
2022-08-26T05:03:27.469Z,10.13
2022-08-26T05:05:58.526Z,9.13
2022-08-26T05:08:25.530Z,9.33
2022-08-26T05:10:57.228Z,9.27
2022-08-26T05:13:26.505Z,9.33
2022-08-26T05:15:53.652Z,9.50
2022-08-26T05:18:23.089Z,9.03
2022-08-26T05:20:54.036Z,9.20
2022-08-26T05:23:23.244Z,9.27
2022-08-26T05:25:59.310Z,9.80
2022-08-26T05:28:28.879Z,9.17
2022-08-26T05:30:55.822Z,9.33
2022-08-26T05:33:23.160Z,9.40
2022-08-26T05:35:49.789Z,9.60
2022-08-26T05:38:19.121Z,8.53
2022-08-26T05:40:49.339Z,9.00
2022-08-26T05:43:21.468Z,9.00
2022-08-26T05:45:50.681Z,9.47
2022-08-26T05:48:22.681Z,8.80
2022-08-26T05:50:53.151Z,7.77
2022-08-26T05:53:21.729Z,8.60
2022-08-26T05:55:52.065Z,8.13
2022-08-26T05:58:21.154Z,7.60
2022-08-26T06:01:10.448Z,7.97
2022-08-26T06:03:40.475Z,7.63
2022-08-26T06:06:13.476Z,8.53
2022-08-26T06:08:40.409Z,8.00
2022-08-26T06:11:18.673Z,8.83
2022-08-26T06:13:46.200Z,8.50
2022-08-26T06:16:22.353Z,8.33
2022-08-26T06:18:51.022Z,9.90
2022-08-26T06:21:34.085Z,9.13
2022-08-26T06:24:27.014Z,8.20
2022-08-26T06:26:57.794Z,8.90
2022-08-26T06:29:28.583Z,7.97
2022-08-26T06:31:57.278Z,8.63
2022-08-26T06:34:26.610Z,7.83
2022-08-26T06:36:58.641Z,9.60
2022-08-26T06:39:25.288Z,9.03
2022-08-26T06:41:52.244Z,8.73
2022-08-26T06:44:19.796Z,9.97
2022-08-26T06:46:50.278Z,8.57
2022-08-26T06:49:17.742Z,9.50
2022-08-26T06:51:44.764Z,8.80
2022-08-26T06:54:11.540Z,9.43
2022-08-26T06:56:41.750Z,8.73
2022-08-26T06:59:09.463Z,9.37
2022-08-26T07:01:43.018Z,9.50
2022-08-26T07:04:10.811Z,8.93
2022-08-26T07:06:40.606Z,8.33
2022-08-26T07:09:10.007Z,9.30
2022-08-26T07:11:38.782Z,8.60
2022-08-26T07:14:06.208Z,8.33
2022-08-26T07:16:33.932Z,9.67
2022-08-26T07:19:10.922Z,8.50
2022-08-26T07:21:40.450Z,9.00
2022-08-26T07:24:08.726Z,8.50
2022-08-26T07:26:37.753Z,8.73
2022-08-26T07:29:04.531Z,8.97
2022-08-26T07:31:39.453Z,8.53
2022-08-26T07:34:09.375Z,9.93
2022-08-26T07:36:36.442Z,8.40
2022-08-26T07:39:03.276Z,8.40
2022-08-26T07:44:01.364Z,8.80
2022-08-26T07:46:30.243Z,8.80
2022-08-26T07:48:57.979Z,10.00
2022-08-26T07:51:26.125Z,9.50
2022-08-26T07:53:54.257Z,9.43
2022-08-26T07:56:23.259Z,9.10
2022-08-26T07:58:51.876Z,8.87
2022-08-26T08:01:24.942Z,9.97
2022-08-26T08:03:53.803Z,10.07
2022-08-26T08:06:27.014Z,10.57
2022-08-26T08:08:55.206Z,10.87
2022-08-26T08:11:23.607Z,10.57
2022-08-26T08:13:52.335Z,11.00
2022-08-26T08:16:24.859Z,10.53
2022-08-26T08:18:53.426Z,10.27
2022-08-26T08:21:23.931Z,10.50
2022-08-26T08:23:55.493Z,10.37
2022-08-26T08:26:23.468Z,9.00
2022-08-26T08:28:50.943Z,7.47
2022-08-26T08:34:14.216Z,4.30
2022-08-26T08:36:40.757Z,4.07
2022-08-26T08:39:08.248Z,3.70
2022-08-26T08:41:35.719Z,3.37
2022-08-26T08:44:02.735Z,3.80
2022-08-26T08:46:30.752Z,4.43
2022-08-26T08:48:59.950Z,3.90
2022-08-26T08:51:39.814Z,4.00
2022-08-26T08:54:07.818Z,3.80
2022-08-26T08:56:52.935Z,4.00
2022-08-26T08:59:24.126Z,3.50
2022-08-26T09:02:04.804Z,3.90
2022-08-26T09:04:45.224Z,3.90
2022-08-26T09:07:18.489Z,3.63
2022-08-26T09:09:50.177Z,3.43
2022-08-26T09:12:29.425Z,3.60
2022-08-26T09:15:12.003Z,3.80
2022-08-26T09:17:59.909Z,4.40
2022-08-26T09:20:52.635Z,5.07
2022-08-26T09:23:22.838Z,4.93
2022-08-26T09:25:55.737Z,4.80
2022-08-26T09:28:24.300Z,5.10
2022-08-26T09:31:11.693Z,5.00
2022-08-26T09:33:40.261Z,5.43
2022-08-26T09:36:18.233Z,5.57
2022-08-26T09:38:46.102Z,6.30
2022-08-26T09:41:31.754Z,6.30
2022-08-26T09:44:17.121Z,6.57
2022-08-26T09:46:55.584Z,6.70
2022-08-26T09:49:37.904Z,7.57
2022-08-26T09:52:07.695Z,8.13
2022-08-26T09:54:35.777Z,8.93
2022-08-26T09:57:19.401Z,10.00
2022-08-26T09:59:47.211Z,11.20
2022-08-26T10:02:36.312Z,11.93
2022-08-26T10:05:09.243Z,12.13
2022-08-26T10:07:49.761Z,12.27
2022-08-26T10:10:39.678Z,13.40
2022-08-26T10:13:17.363Z,11.37
2022-08-26T10:16:02.222Z,13.33
2022-08-26T10:18:37.327Z,12.97
2022-08-26T10:21:10.849Z,12.00
2022-08-26T10:23:42.847Z,11.43
2022-08-26T10:26:30.693Z,10.10
2022-08-26T10:29:25.953Z,9.13
2022-08-26T10:32:02.698Z,8.30
2022-08-26T10:34:32.491Z,9.17
2022-08-26T10:37:14.355Z,7.87
2022-08-26T10:39:57.207Z,8.00
2022-08-26T10:42:53.253Z,7.47
2022-08-26T10:45:26.020Z,7.43
2022-08-26T10:48:11.002Z,8.00
2022-08-26T10:50:41.881Z,8.20
2022-08-26T10:53:17.164Z,9.13
2022-08-26T10:55:54.014Z,8.00
2022-08-26T10:58:26.668Z,8.23
2022-08-26T11:01:29.482Z,11.27
2022-08-26T11:04:09.904Z,11.83
2022-08-26T11:06:37.111Z,11.47
2022-08-26T11:09:06.673Z,11.17
2022-08-26T11:11:42.401Z,11.23
2022-08-26T11:14:34.236Z,12.63
2022-08-26T11:17:55.441Z,14.63
2022-08-26T11:20:28.549Z,13.27
2022-08-26T11:22:59.525Z,13.43
2022-08-26T11:25:30.777Z,12.70
2022-08-26T11:28:01.009Z,11.63
2022-08-26T11:30:36.721Z,13.53
2022-08-26T11:33:03.392Z,13.07
2022-08-26T11:35:34.259Z,11.77
2022-08-26T11:38:15.785Z,11.87
2022-08-26T11:40:42.611Z,10.60
2022-08-26T11:43:23.027Z,10.60
2022-08-26T11:45:59.764Z,11.43
2022-08-26T11:48:26.310Z,11.73
2022-08-26T11:51:09.631Z,10.70
2022-08-26T11:53:38.956Z,9.77
2022-08-26T11:56:33.994Z,10.53
2022-08-26T11:59:03.958Z,11.10
2022-08-26T12:01:44.587Z,10.37
2022-08-26T12:04:26.557Z,9.93
2022-08-26T12:06:53.473Z,9.30
2022-08-26T12:09:30.675Z,9.37
2022-08-26T12:12:18.224Z,8.90
2022-08-26T12:14:45.367Z,8.20
2022-08-26T12:17:16.257Z,8.03
2022-08-26T12:19:43.661Z,8.27
2022-08-26T12:22:34.590Z,7.27
2022-08-26T12:25:08.513Z,7.30
2022-08-26T12:27:43.632Z,7.50
2022-08-26T12:30:20.386Z,6.90
2022-08-26T12:32:56.563Z,6.57
2022-08-26T12:35:25.469Z,7.40
2022-08-26T12:37:54.316Z,7.30
2022-08-26T12:40:43.819Z,7.13
2022-08-26T12:43:13.547Z,7.20
2022-08-26T12:45:44.353Z,6.53
2022-08-26T12:48:20.677Z,6.70
2022-08-26T12:50:52.286Z,7.33
2022-08-26T12:53:21.509Z,6.60
2022-08-26T12:55:52.534Z,6.00
2022-08-26T12:58:34.832Z,6.00
2022-08-26T13:01:04.577Z,6.03
2022-08-26T13:03:37.690Z,6.63
2022-08-26T13:06:24.031Z,6.53
2022-08-26T13:09:08.842Z,6.47
2022-08-26T13:11:41.412Z,7.77
2022-08-26T13:14:18.430Z,6.80
2022-08-26T13:16:51.827Z,6.43
2022-08-26T13:19:22.107Z,6.57
2022-08-26T13:21:52.922Z,6.47
2022-08-26T13:24:35.609Z,6.73
2022-08-26T13:27:03.886Z,6.27
2022-08-26T13:29:30.860Z,7.40
2022-08-26T13:31:58.312Z,7.20
2022-08-26T13:34:24.866Z,7.50
2022-08-26T13:36:54.468Z,7.60
2022-08-26T13:39:22.171Z,7.67
2022-08-26T13:41:49.718Z,7.70
2022-08-26T13:44:17.629Z,7.93
2022-08-26T13:49:17.348Z,8.57
2022-08-26T13:51:43.991Z,7.70
2022-08-26T13:54:11.200Z,6.90
2022-08-26T13:56:37.765Z,7.33
2022-08-26T13:59:06.451Z,7.10
2022-08-26T14:01:35.089Z,6.50
2022-08-26T14:04:03.051Z,7.10
2022-08-26T14:06:30.031Z,6.67
2022-08-26T14:08:56.910Z,6.77
2022-08-26T14:11:24.950Z,6.90
2022-08-26T14:13:51.601Z,7.00
2022-08-26T14:16:26.088Z,7.67
2022-08-26T14:18:53.510Z,7.30
2022-08-26T14:21:20.916Z,6.60
2022-08-26T14:23:47.954Z,6.60
2022-08-26T14:26:28.594Z,7.40
2022-08-26T14:28:59.970Z,6.87
2022-08-26T14:31:29.588Z,6.50
2022-08-26T14:33:58.817Z,6.17
2022-08-26T14:36:28.317Z,6.50
2022-08-26T14:38:57.076Z,6.83
2022-08-26T14:41:25.629Z,6.70
2022-08-26T14:44:00.263Z,6.40
2022-08-26T14:46:30.268Z,7.20
2022-08-26T14:49:03.542Z,6.70
2022-08-26T14:51:31.052Z,7.73
2022-08-26T14:54:12.691Z,6.83
2022-08-26T14:56:51.351Z,6.57
2022-08-26T14:59:21.163Z,6.27
2022-08-26T15:01:48.118Z,6.03
2022-08-26T15:04:15.656Z,6.13
2022-08-26T15:06:42.426Z,6.17
2022-08-26T15:09:09.301Z,5.50
2022-08-26T15:11:35.941Z,5.77
2022-08-26T15:14:02.896Z,6.30
2022-08-26T15:16:29.746Z,5.80
2022-08-26T15:18:56.920Z,6.17
2022-08-26T15:21:24.511Z,6.67
2022-08-26T15:23:52.195Z,5.93
2022-08-26T15:26:20.093Z,6.13
2022-08-26T15:28:46.749Z,6.70
2022-08-26T15:31:13.450Z,8.20
2022-08-26T15:33:40.420Z,9.10
2022-08-26T15:36:07.834Z,11.53
2022-08-26T15:38:38.321Z,9.03
2022-08-26T15:41:08.626Z,10.90
2022-08-26T15:43:37.017Z,15.30
2022-08-26T15:46:04.212Z,12.87
2022-08-26T15:48:30.967Z,17.20
2022-08-26T15:51:02.931Z,17.10
2022-08-26T15:53:32.052Z,14.80
2022-08-26T15:56:00.166Z,18.83
2022-08-26T15:58:28.334Z,17.40
2022-08-26T16:00:56.433Z,16.97
2022-08-26T16:03:23.583Z,16.23
2022-08-26T16:05:50.301Z,17.10
2022-08-26T16:08:17.332Z,16.93
2022-08-26T16:10:50.017Z,16.63
2022-08-26T16:13:19.669Z,16.67
2022-08-26T16:15:47.694Z,16.97
2022-08-26T16:18:15.713Z,18.57
2022-08-26T16:21:06.533Z,18.20
2022-08-26T16:23:38.453Z,17.57
2022-08-26T16:26:17.444Z,20.13
2022-08-26T16:28:44.017Z,15.27
2022-08-26T16:31:11.695Z,15.97
2022-08-26T16:33:38.402Z,19.17
2022-08-26T16:36:06.141Z,17.40
2022-08-26T16:38:34.259Z,20.40
2022-08-26T16:41:01.204Z,16.23
2022-08-26T16:43:28.473Z,18.50
2022-08-26T16:45:55.234Z,17.53
2022-08-26T16:48:21.955Z,6.33
2022-08-26T16:50:49.376Z,5.57
2022-08-26T16:53:16.176Z,5.10
2022-08-26T16:55:47.639Z,5.00
2022-08-26T16:58:14.770Z,5.53
2022-08-26T17:00:41.560Z,6.87
2022-08-26T17:03:08.897Z,5.50
2022-08-26T17:05:36.319Z,5.80
2022-08-26T17:08:03.857Z,6.10
2022-08-26T17:10:30.977Z,6.30
2022-08-26T17:12:58.078Z,6.37
2022-08-26T17:15:25.550Z,6.93
2022-08-26T17:17:53.127Z,5.70
2022-08-26T17:20:21.525Z,6.10
2022-08-26T17:22:49.952Z,6.60
2022-08-26T17:25:24.494Z,5.90
2022-08-26T17:27:51.197Z,6.33
2022-08-26T17:30:18.339Z,6.30
2022-08-26T17:32:45.568Z,6.10
2022-08-26T17:35:13.975Z,6.00
2022-08-26T17:37:41.075Z,6.40
2022-08-26T17:40:11.890Z,6.57
2022-08-26T17:42:39.471Z,6.60
2022-08-26T17:45:06.854Z,6.53
2022-08-26T17:47:33.965Z,6.57
2022-08-26T17:50:01.387Z,6.27
2022-08-26T17:52:28.771Z,6.60
2022-08-26T17:54:58.991Z,5.93
2022-08-26T17:57:26.531Z,6.17
2022-08-26T17:59:54.255Z,6.47
2022-08-26T18:02:21.403Z,6.73
2022-08-26T18:04:48.418Z,6.27
2022-08-26T18:07:15.749Z,6.87
2022-08-26T18:09:42.613Z,6.60
2022-08-26T18:12:09.840Z,7.10
2022-08-26T18:14:36.427Z,6.27
2022-08-26T18:17:03.838Z,6.70
2022-08-26T18:19:31.390Z,6.80
2022-08-26T18:21:58.633Z,6.70
2022-08-26T18:24:25.383Z,6.50
2022-08-26T18:26:52.069Z,7.40
2022-08-26T18:29:19.701Z,7.20
2022-08-26T18:31:46.558Z,7.63
2022-08-26T18:34:15.420Z,8.60
2022-08-26T18:36:42.951Z,8.57
2022-08-26T18:39:10.406Z,9.10
2022-08-26T18:41:48.481Z,9.27
2022-08-26T18:44:17.321Z,9.07
2022-08-26T18:46:46.629Z,9.47
2022-08-26T18:49:16.378Z,9.23
2022-08-26T18:51:44.563Z,9.37
2022-08-26T18:54:12.487Z,7.80
2022-08-26T18:56:41.020Z,7.40
2022-08-26T18:59:09.365Z,7.83
2022-08-26T19:01:38.900Z,7.13
2022-08-26T19:04:07.947Z,7.70
2022-08-26T19:06:37.495Z,7.87
2022-08-26T19:09:07.047Z,7.37
2022-08-26T19:11:42.837Z,7.50
2022-08-26T19:14:13.994Z,8.07
2022-08-26T19:16:43.982Z,7.83
2022-08-26T19:19:11.360Z,8.17
2022-08-26T19:21:39.304Z,8.03
2022-08-26T19:24:15.700Z,7.63
2022-08-26T19:26:45.735Z,8.30
2022-08-26T19:29:14.061Z,8.17
2022-08-26T19:31:44.085Z,8.23
2022-08-26T19:34:13.775Z,7.50
2022-08-26T19:36:44.856Z,8.23
2022-08-26T19:39:14.285Z,8.23
2022-08-26T19:41:41.788Z,8.43
2022-08-26T19:44:35.063Z,8.13
2022-08-26T19:47:04.168Z,8.00
2022-08-26T19:49:31.685Z,8.27
2022-08-26T19:51:58.270Z,8.40
2022-08-26T19:54:25.545Z,8.70
2022-08-26T19:56:52.364Z,8.60
2022-08-26T19:59:18.914Z,9.20
2022-08-26T20:01:45.537Z,10.43
2022-08-26T20:04:12.591Z,11.50
2022-08-26T20:06:39.980Z,11.67
2022-08-26T20:09:07.034Z,11.90
2022-08-26T20:11:34.098Z,10.77
2022-08-26T20:14:03.585Z,11.60
2022-08-26T20:16:30.512Z,11.60
2022-08-26T20:19:16.046Z,10.67
2022-08-26T20:21:43.205Z,10.53
2022-08-26T20:24:14.069Z,10.80
2022-08-26T20:26:42.909Z,10.50
2022-08-26T20:29:12.331Z,10.93
2022-08-26T20:31:39.550Z,10.83
2022-08-26T20:34:06.973Z,10.50
2022-08-26T20:36:34.253Z,10.93
2022-08-26T20:39:00.888Z,11.10
2022-08-26T20:41:28.157Z,9.50
2022-08-26T20:43:55.512Z,11.03
2022-08-26T20:46:24.881Z,11.53
2022-08-26T20:48:53.663Z,11.10
2022-08-26T20:51:23.578Z,10.90
2022-08-26T20:53:50.874Z,11.97
2022-08-26T20:56:24.625Z,12.07
2022-08-26T20:58:54.026Z,13.07
2022-08-26T21:01:24.882Z,11.50
2022-08-26T21:03:56.878Z,9.90
2022-08-26T21:06:24.027Z,10.43
2022-08-26T21:08:50.850Z,9.83
2022-08-26T21:11:18.372Z,8.90
2022-08-26T21:14:03.812Z,8.10
2022-08-26T21:16:31.953Z,8.30
2022-08-26T21:19:00.466Z,8.33
2022-08-26T21:21:27.615Z,7.90
2022-08-26T21:23:54.836Z,7.57
2022-08-26T21:26:21.750Z,7.63
2022-08-26T21:28:49.615Z,7.97
2022-08-26T21:31:20.846Z,7.70
2022-08-26T21:33:47.565Z,7.60
2022-08-26T21:36:15.445Z,7.33
2022-08-26T21:38:42.356Z,6.80
2022-08-26T21:41:20.496Z,6.70
2022-08-26T21:43:48.530Z,7.10
2022-08-26T21:46:18.067Z,7.00
2022-08-26T21:48:51.036Z,8.33
2022-08-26T21:51:20.230Z,7.37
2022-08-26T21:53:46.925Z,7.77
2022-08-26T21:56:18.466Z,7.80
2022-08-26T21:58:45.585Z,8.53
2022-08-26T22:01:16.169Z,7.87
2022-08-26T22:03:47.671Z,8.43
2022-08-26T22:06:17.462Z,7.27
2022-08-26T22:08:44.080Z,8.23
2022-08-26T22:11:11.433Z,7.57
2022-08-26T22:13:39.975Z,8.97
2022-08-26T22:16:07.748Z,8.20
2022-08-26T22:18:35.437Z,8.37
2022-08-26T22:21:06.068Z,7.73
2022-08-26T22:23:33.287Z,7.80
2022-08-26T22:26:00.272Z,6.97
2022-08-26T22:28:27.393Z,8.20
2022-08-26T22:30:55.610Z,8.63
2022-08-26T22:33:22.985Z,7.77
2022-08-26T22:35:51.266Z,7.90
2022-08-26T22:38:18.843Z,8.57
2022-08-26T22:40:50.417Z,8.13
2022-08-26T22:43:18.316Z,8.07
2022-08-26T22:45:47.962Z,7.67
2022-08-26T22:48:17.908Z,8.13
2022-08-26T22:50:47.189Z,7.93
2022-08-26T22:53:15.745Z,7.80
2022-08-26T22:55:43.517Z,9.07
2022-08-26T22:58:12.197Z,7.80
2022-08-26T23:00:40.020Z,8.47
2022-08-26T23:03:07.937Z,9.00
2022-08-26T23:05:35.451Z,9.30
2022-08-26T23:08:02.404Z,8.80
2022-08-26T23:10:29.543Z,8.80
2022-08-26T23:12:56.223Z,8.47
2022-08-26T23:15:22.821Z,9.33
2022-08-26T23:17:58.317Z,9.67
2022-08-26T23:20:27.031Z,9.77
2022-08-26T23:22:54.223Z,9.17
2022-08-26T23:25:20.909Z,8.57
2022-08-26T23:27:48.603Z,9.50
2022-08-26T23:30:19.625Z,9.40
2022-08-26T23:32:46.814Z,9.47
2022-08-26T23:35:14.126Z,9.70
2022-08-26T23:37:44.624Z,10.40
2022-08-26T23:40:17.838Z,10.33
2022-08-26T23:42:44.444Z,10.00
2022-08-26T23:45:13.888Z,9.87
2022-08-26T23:47:41.285Z,11.73
2022-08-26T23:50:08.988Z,12.33
2022-08-26T23:52:54.184Z,11.27
2022-08-26T23:55:20.826Z,11.73
2022-08-26T23:57:47.649Z,11.13
